createdAt,value
2018-09-28T00:01:51.143Z,101426.00
2018-09-28T00:04:19.990Z,101431.00
2018-09-28T00:06:48.826Z,101427.00
2018-09-28T00:09:17.646Z,101426.00
2018-09-28T00:11:46.465Z,101427.00
2018-09-28T00:14:15.424Z,101429.00
2018-09-28T00:16:44.229Z,101418.00
2018-09-28T00:19:13.039Z,101426.00
2018-09-28T00:21:41.866Z,101429.00
2018-09-28T00:24:10.669Z,101411.00
2018-09-28T00:26:39.504Z,101420.00
2018-09-28T00:29:08.398Z,101410.00
2018-09-28T00:31:37.215Z,101420.00
2018-09-28T00:34:06.014Z,101422.00
2018-09-28T00:36:34.946Z,101421.00
2018-09-28T00:39:05.094Z,101419.00
2018-09-28T00:41:33.945Z,101414.00
2018-09-28T00:44:02.772Z,101404.00
2018-09-28T00:46:31.670Z,101409.00
2018-09-28T00:49:00.477Z,101407.00
2018-09-28T00:51:29.381Z,101401.00
2018-09-28T00:53:58.214Z,101395.00
2018-09-28T00:56:27.051Z,101396.00
2018-09-28T00:58:56.033Z,101383.00
2018-09-28T01:01:25.233Z,101389.00
2018-09-28T01:03:54.020Z,101390.00
2018-09-28T01:06:22.863Z,101391.00
2018-09-28T01:08:51.718Z,101394.00
2018-09-28T01:11:20.541Z,101382.00
2018-09-28T01:13:49.378Z,101380.00
2018-09-28T01:16:18.170Z,101380.00
2018-09-28T01:18:46.958Z,101380.00
2018-09-28T01:21:15.873Z,101380.00
2018-09-28T01:23:44.690Z,101388.00
2018-09-28T01:26:13.497Z,101374.00
2018-09-28T01:28:42.314Z,101371.00
2018-09-28T01:31:11.129Z,101369.00
2018-09-28T01:33:39.958Z,101375.00
2018-09-28T01:36:08.801Z,101375.00
2018-09-28T01:38:37.788Z,101375.00
2018-09-28T01:41:06.589Z,101371.00
2018-09-28T01:43:35.531Z,101372.00
2018-09-28T01:46:04.346Z,101374.00
2018-09-28T01:48:33.182Z,101377.00
2018-09-28T01:51:02.049Z,101366.00
2018-09-28T01:53:30.861Z,101356.00
2018-09-28T01:55:59.662Z,101374.00
2018-09-28T01:58:28.535Z,101368.00
2018-09-28T02:00:57.361Z,101383.00
2018-09-28T02:03:26.792Z,101371.00
2018-09-28T02:05:55.887Z,101375.00
2018-09-28T02:08:24.710Z,101370.00
2018-09-28T02:10:53.517Z,101364.00
2018-09-28T02:13:22.339Z,101371.00
2018-09-28T02:15:51.184Z,101365.00
2018-09-28T02:18:19.961Z,101371.00
2018-09-28T02:20:48.807Z,101368.00
2018-09-28T02:23:17.626Z,101374.00
2018-09-28T02:25:46.421Z,101373.00
2018-09-28T02:28:15.454Z,101374.00
2018-09-28T02:30:44.329Z,101378.00
2018-09-28T02:33:13.154Z,101367.00
2018-09-28T02:35:42.019Z,101379.00
2018-09-28T02:38:10.867Z,101374.00
2018-09-28T02:40:39.689Z,101372.00
2018-09-28T02:43:08.486Z,101371.00
2018-09-28T02:45:37.335Z,101365.00
2018-09-28T02:48:06.264Z,101359.00
2018-09-28T02:50:35.181Z,101375.00
2018-09-28T02:53:04.033Z,101364.00
2018-09-28T02:55:32.822Z,101369.00
2018-09-28T02:58:01.664Z,101367.00
2018-09-28T03:00:30.543Z,101363.00
2018-09-28T03:02:59.362Z,101366.00
2018-09-28T03:05:28.623Z,101364.00
2018-09-28T03:07:57.438Z,101359.00
2018-09-28T03:10:26.270Z,101374.00
2018-09-28T03:12:55.598Z,101372.00
2018-09-28T03:15:24.421Z,101367.00
2018-09-28T03:17:53.231Z,101370.00
2018-09-28T03:20:22.085Z,101375.00
2018-09-28T03:22:50.899Z,101359.00
2018-09-28T03:25:19.953Z,101364.00
2018-09-28T03:27:48.774Z,101380.00
2018-09-28T03:30:17.767Z,101385.00
2018-09-28T03:32:46.591Z,101374.00
2018-09-28T03:35:15.552Z,101380.00
2018-09-28T03:37:44.401Z,101375.00
2018-09-28T03:40:13.277Z,101379.00
2018-09-28T03:42:42.098Z,101379.00
2018-09-28T03:45:10.902Z,101381.00
2018-09-28T03:47:41.002Z,101379.00
2018-09-28T03:50:09.861Z,101368.00
2018-09-28T03:52:38.688Z,101374.00
2018-09-28T03:55:08.480Z,101376.00
2018-09-28T03:57:37.690Z,101380.00
2018-09-28T04:00:07.104Z,101349.00
2018-09-28T04:02:35.934Z,101374.00
2018-09-28T04:05:04.821Z,101370.00
2018-09-28T04:07:34.224Z,101378.00
2018-09-28T04:10:03.052Z,101385.00
2018-09-28T04:12:31.883Z,101378.00
2018-09-28T04:15:00.770Z,101368.00
2018-09-28T04:17:29.569Z,101386.00
2018-09-28T04:19:58.675Z,101385.00
2018-09-28T04:22:28.079Z,101387.00
2018-09-28T04:24:56.892Z,101385.00
2018-09-28T04:27:25.735Z,101393.00
2018-09-28T04:29:54.557Z,101394.00
2018-09-28T04:32:24.404Z,101389.00
2018-09-28T04:35:00.274Z,101392.00
2018-09-28T04:37:29.287Z,101395.00
2018-09-28T04:39:58.109Z,101400.00
2018-09-28T04:42:27.014Z,101391.00
2018-09-28T04:44:55.841Z,101391.00
2018-09-28T04:47:24.658Z,101404.00
2018-09-28T04:49:53.491Z,101406.00
2018-09-28T04:52:22.348Z,101406.00
2018-09-28T04:54:51.130Z,101417.00
2018-09-28T04:57:20.222Z,101415.00
2018-09-28T04:59:49.046Z,101429.00
2018-09-28T05:02:18.184Z,101409.00
2018-09-28T05:04:47.017Z,101437.00
2018-09-28T05:07:15.863Z,101433.00
2018-09-28T05:09:44.978Z,101437.00
2018-09-28T05:12:13.815Z,101438.00
2018-09-28T05:14:42.671Z,101437.00
2018-09-28T05:17:11.550Z,101442.00
2018-09-28T05:19:40.585Z,101444.00
2018-09-28T05:22:09.436Z,101446.00
2018-09-28T05:24:38.277Z,101450.00
2018-09-28T05:27:07.133Z,101449.00
2018-09-28T05:29:35.936Z,101449.00
2018-09-28T05:32:04.870Z,101462.00
2018-09-28T05:34:33.656Z,101368.00
2018-09-28T05:37:02.511Z,101473.00
2018-09-28T05:39:31.350Z,101478.00
2018-09-28T05:42:00.463Z,101478.00
2018-09-28T05:44:29.270Z,101492.00
2018-09-28T05:46:58.114Z,101490.00
2018-09-28T05:49:27.043Z,101494.00
2018-09-28T05:52:02.476Z,101498.00
2018-09-28T05:54:31.342Z,101505.00
2018-09-28T05:57:00.153Z,101500.00
2018-09-28T05:59:34.570Z,101505.00
2018-09-28T06:02:08.773Z,101509.00
2018-09-28T06:04:43.059Z,101514.00
2018-09-28T06:07:12.018Z,101509.00
2018-09-28T06:09:40.886Z,101511.00
2018-09-28T06:12:10.007Z,101526.00
2018-09-28T06:14:38.841Z,101535.00
2018-09-28T06:17:08.306Z,101530.00
2018-09-28T06:19:37.265Z,101539.00
2018-09-28T06:22:06.118Z,101541.00
2018-09-28T06:24:34.945Z,101546.00
2018-09-28T06:27:03.795Z,101562.00
2018-09-28T06:29:32.696Z,101554.00
2018-09-28T06:32:01.535Z,101567.00
2018-09-28T06:34:30.406Z,101561.00
2018-09-28T06:36:59.238Z,101569.00
2018-09-28T06:39:28.088Z,101563.00
2018-09-28T06:41:57.185Z,101579.00
2018-09-28T06:44:25.908Z,101584.00
2018-09-28T06:46:54.738Z,101576.00
2018-09-28T06:49:23.712Z,101586.00
2018-09-28T06:51:52.532Z,101584.00
2018-09-28T06:54:21.352Z,101587.00
2018-09-28T06:56:50.219Z,101593.00
2018-09-28T06:59:19.006Z,101605.00
2018-09-28T07:01:47.820Z,101607.00
2018-09-28T07:04:17.592Z,101614.00
2018-09-28T07:06:46.406Z,101620.00
2018-09-28T07:09:15.258Z,101619.00
2018-09-28T07:11:44.107Z,101618.00
2018-09-28T07:14:13.347Z,101635.00
2018-09-28T07:16:42.370Z,101637.00
2018-09-28T07:19:11.134Z,101640.00
2018-09-28T07:21:42.965Z,101651.00
2018-09-28T07:24:11.840Z,101638.00
2018-09-28T07:26:41.194Z,101649.00
2018-09-28T07:29:10.149Z,101656.00
2018-09-28T07:31:39.157Z,101656.00
2018-09-28T07:34:07.989Z,101666.00
2018-09-28T07:36:36.955Z,101675.00
2018-09-28T07:39:09.384Z,101670.00
2018-09-28T07:41:38.277Z,101662.00
2018-09-28T07:44:07.138Z,101664.00
2018-09-28T07:46:36.410Z,101677.00
2018-09-28T07:49:05.536Z,101671.00
2018-09-28T07:51:34.363Z,101689.00
2018-09-28T07:54:03.209Z,101688.00
2018-09-28T07:56:32.060Z,101699.00
2018-09-28T07:59:00.887Z,101699.00
2018-09-28T08:01:29.720Z,101687.00
2018-09-28T08:03:58.592Z,101710.00
2018-09-28T08:06:27.349Z,101712.00
2018-09-28T08:08:56.638Z,101720.00
2018-09-28T08:11:25.449Z,101725.00
2018-09-28T08:13:54.274Z,101734.00
2018-09-28T08:16:23.552Z,101735.00
2018-09-28T08:18:52.418Z,101728.00
2018-09-28T08:21:21.315Z,101733.00
2018-09-28T08:23:50.125Z,101744.00
2018-09-28T08:26:18.959Z,101727.00
2018-09-28T08:28:47.805Z,101747.00
2018-09-28T08:31:17.075Z,101748.00
2018-09-28T08:33:45.911Z,101752.00
2018-09-28T08:36:14.771Z,101743.00
2018-09-28T08:38:44.577Z,101749.00
2018-09-28T08:41:13.412Z,101739.00
2018-09-28T08:43:42.341Z,101746.00
2018-09-28T08:46:11.171Z,101751.00
2018-09-28T08:48:40.135Z,101761.00
2018-09-28T08:51:09.218Z,101753.00
2018-09-28T08:53:38.545Z,101752.00
2018-09-28T08:56:07.753Z,101753.00
2018-09-28T08:58:36.559Z,101762.00
2018-09-28T09:01:05.475Z,101765.00
2018-09-28T09:03:34.297Z,101753.00
2018-09-28T09:06:03.149Z,101769.00
2018-09-28T09:08:31.965Z,101769.00
2018-09-28T09:11:00.794Z,101780.00
2018-09-28T09:13:29.630Z,101794.00
2018-09-28T09:15:58.941Z,101799.00
2018-09-28T09:18:28.272Z,101783.00
2018-09-28T09:20:57.144Z,101788.00
2018-09-28T09:23:25.981Z,101797.00
2018-09-28T09:25:54.824Z,101786.00
2018-09-28T09:28:23.643Z,101807.00
2018-09-28T09:30:52.549Z,101796.00
2018-09-28T09:33:21.445Z,101784.00
2018-09-28T09:35:50.258Z,101802.00
2018-09-28T09:38:19.302Z,101790.00
2018-09-28T09:40:48.135Z,101803.00
2018-09-28T09:43:16.989Z,101791.00
2018-09-28T09:45:45.827Z,101800.00
2018-09-28T09:48:14.682Z,101802.00
2018-09-28T09:50:43.486Z,101810.00
2018-09-28T09:53:12.317Z,101807.00
2018-09-28T09:55:41.134Z,101800.00
2018-09-28T09:58:10.018Z,101815.00
2018-09-28T10:00:44.618Z,101801.00
2018-09-28T10:03:18.746Z,101807.00
2018-09-28T10:05:47.741Z,101807.00
2018-09-28T10:08:16.566Z,101816.00
2018-09-28T10:10:45.396Z,101814.00
2018-09-28T10:13:14.210Z,101811.00
2018-09-28T10:15:43.032Z,101798.00
2018-09-28T10:18:11.893Z,101802.00
2018-09-28T10:20:41.895Z,101792.00
2018-09-28T10:23:10.742Z,101787.00
2018-09-28T10:25:39.566Z,101741.00
2018-09-28T10:28:08.403Z,101801.00
2018-09-28T10:30:37.209Z,101802.00
2018-09-28T10:33:06.059Z,101807.00
2018-09-28T10:35:34.890Z,101804.00
2018-09-28T10:38:03.746Z,101806.00
2018-09-28T10:40:32.648Z,101808.00
2018-09-28T10:43:01.663Z,101804.00
2018-09-28T10:45:30.521Z,101807.00
2018-09-28T10:47:59.358Z,101814.00
2018-09-28T10:50:28.256Z,101812.00
2018-09-28T10:52:57.133Z,101813.00
2018-09-28T10:55:25.897Z,101807.00
2018-09-28T10:57:54.715Z,101815.00
2018-09-28T11:00:23.540Z,101819.00
2018-09-28T11:02:52.341Z,101822.00
2018-09-28T11:05:21.514Z,101814.00
2018-09-28T11:07:50.393Z,101796.00
2018-09-28T11:10:19.316Z,101805.00
2018-09-28T11:12:48.188Z,101803.00
2018-09-28T11:15:16.993Z,101808.00
2018-09-28T11:17:45.801Z,101809.00
2018-09-28T11:20:14.631Z,101819.00
2018-09-28T11:22:43.787Z,101823.00
2018-09-28T11:25:12.615Z,101812.00
2018-09-28T11:27:41.931Z,101813.00
2018-09-28T11:30:10.763Z,101800.00
2018-09-28T11:32:39.600Z,101812.00
2018-09-28T11:35:09.112Z,101817.00
2018-09-28T11:37:38.122Z,101813.00
2018-09-28T11:40:08.093Z,101808.00
2018-09-28T11:42:36.925Z,101823.00
2018-09-28T11:45:06.921Z,101811.00
2018-09-28T11:47:35.951Z,101821.00
2018-09-28T11:50:05.083Z,101813.00
2018-09-28T11:52:34.024Z,101818.00
2018-09-28T11:55:02.966Z,101823.00
2018-09-28T11:57:31.778Z,101824.00
2018-09-28T12:00:00.660Z,101826.00
2018-09-28T12:02:29.459Z,101820.00
2018-09-28T12:04:58.517Z,101817.00
2018-09-28T12:07:27.349Z,101819.00
2018-09-28T12:09:56.235Z,101817.00
2018-09-28T12:12:25.598Z,101801.00
2018-09-28T12:14:54.301Z,101802.00
2018-09-28T12:17:23.382Z,101790.00
2018-09-28T12:19:52.183Z,101815.00
2018-09-28T12:22:20.998Z,101813.00
2018-09-28T12:24:50.620Z,101811.00
2018-09-28T12:27:19.493Z,101813.00
2018-09-28T12:29:48.283Z,101806.00
2018-09-28T12:32:17.128Z,101816.00
2018-09-28T12:34:46.507Z,101813.00
2018-09-28T12:37:15.334Z,101807.00
2018-09-28T12:39:44.241Z,101814.00
2018-09-28T12:42:13.049Z,101823.00
2018-09-28T12:44:41.913Z,101823.00
2018-09-28T12:47:10.708Z,101829.00
2018-09-28T12:49:39.531Z,101824.00
2018-09-28T12:52:08.390Z,101812.00
2018-09-28T12:54:37.237Z,101825.00
2018-09-28T12:57:06.204Z,101819.00
2018-09-28T12:59:35.017Z,101820.00
2018-09-28T13:02:04.014Z,101823.00
2018-09-28T13:04:32.902Z,101828.00
2018-09-28T13:07:01.772Z,101847.00
2018-09-28T13:09:30.611Z,101834.00
2018-09-28T13:11:59.468Z,101832.00
2018-09-28T13:14:31.169Z,101833.00
2018-09-28T13:17:00.250Z,101823.00
2018-09-28T13:19:29.082Z,101832.00
2018-09-28T13:21:57.902Z,101828.00
2018-09-28T13:24:26.835Z,101828.00
2018-09-28T13:26:56.118Z,101854.00
2018-09-28T13:29:24.920Z,101841.00
2018-09-28T13:31:53.790Z,101840.00
2018-09-28T13:34:22.627Z,101835.00
2018-09-28T13:36:51.820Z,101842.00
2018-09-28T13:39:20.863Z,101856.00
2018-09-28T13:41:49.687Z,101851.00
2018-09-28T13:44:18.527Z,101850.00
2018-09-28T13:46:47.358Z,101870.00
2018-09-28T13:49:16.176Z,101858.00
2018-09-28T13:51:45.736Z,101850.00
2018-09-28T13:54:14.664Z,101860.00
2018-09-28T13:56:43.510Z,101856.00
2018-09-28T13:59:12.269Z,101864.00
2018-09-28T14:01:41.495Z,101879.00
2018-09-28T14:04:10.379Z,101875.00
2018-09-28T14:06:39.162Z,101874.00
2018-09-28T14:09:09.819Z,101877.00
2018-09-28T14:11:38.846Z,101884.00
2018-09-28T14:14:07.718Z,101893.00
2018-09-28T14:16:37.155Z,101889.00
2018-09-28T14:19:06.010Z,101887.00
2018-09-28T14:21:34.921Z,101892.00
2018-09-28T14:24:04.160Z,101899.00
2018-09-28T14:26:32.988Z,101897.00
2018-09-28T14:29:02.174Z,101893.00
2018-09-28T14:31:31.066Z,101903.00
2018-09-28T14:33:59.965Z,101900.00
2018-09-28T14:36:28.883Z,101913.00
2018-09-28T14:38:57.661Z,101908.00
2018-09-28T14:41:26.477Z,101908.00
2018-09-28T14:43:55.261Z,101916.00
2018-09-28T14:46:24.679Z,101904.00
2018-09-28T14:48:53.580Z,101922.00
2018-09-28T14:51:22.240Z,101927.00
2018-09-28T14:53:51.118Z,101922.00
2018-09-28T14:56:19.999Z,101932.00
2018-09-28T14:58:48.860Z,101938.00
2018-09-28T15:01:17.703Z,101933.00
2018-09-28T15:03:46.475Z,101923.00
2018-09-28T15:06:15.382Z,101923.00
2018-09-28T15:08:44.734Z,101928.00
2018-09-28T15:11:13.512Z,101921.00
2018-09-28T15:13:42.313Z,101923.00
2018-09-28T15:16:11.126Z,101915.00
2018-09-28T15:18:39.975Z,101923.00
2018-09-28T15:21:08.784Z,101928.00
2018-09-28T15:23:37.654Z,101926.00
2018-09-28T15:26:06.585Z,101931.00
2018-09-28T15:28:35.438Z,101931.00
2018-09-28T15:31:04.842Z,101925.00
2018-09-28T15:33:33.657Z,101928.00
2018-09-28T15:36:02.534Z,101933.00
2018-09-28T15:38:31.370Z,101931.00
2018-09-28T15:41:00.260Z,101933.00
2018-09-28T15:43:29.082Z,101934.00
2018-09-28T15:45:57.931Z,101947.00
2018-09-28T15:48:26.807Z,101938.00
2018-09-28T15:50:55.658Z,101949.00
2018-09-28T15:53:24.777Z,101943.00
2018-09-28T15:55:53.615Z,101945.00
2018-09-28T15:58:22.546Z,101943.00
2018-09-28T16:00:51.543Z,101944.00
2018-09-28T16:03:20.385Z,101947.00
2018-09-28T16:05:49.220Z,101950.00
2018-09-28T16:08:18.096Z,101936.00
2018-09-28T16:10:46.913Z,101940.00
2018-09-28T16:13:15.763Z,101954.00
2018-09-28T16:15:45.186Z,101959.00
2018-09-28T16:18:13.993Z,101955.00
2018-09-28T16:20:42.832Z,101968.00
2018-09-28T16:23:11.650Z,101969.00
2018-09-28T16:25:40.501Z,101969.00
2018-09-28T16:28:09.328Z,101968.00
2018-09-28T16:30:38.178Z,101968.00
2018-09-28T16:33:07.573Z,101976.00
2018-09-28T16:35:36.472Z,101976.00
2018-09-28T16:38:05.663Z,101981.00
2018-09-28T16:40:34.566Z,101981.00
2018-09-28T16:43:03.369Z,101992.00
2018-09-28T16:45:32.215Z,102015.00
2018-09-28T16:48:01.067Z,102011.00
2018-09-28T16:50:29.867Z,102021.00
2018-09-28T16:52:58.701Z,102020.00
2018-09-28T16:55:27.520Z,102017.00
2018-09-28T16:57:56.413Z,102027.00
2018-09-28T17:00:25.429Z,102042.00
2018-09-28T17:02:54.235Z,102039.00
2018-09-28T17:05:23.091Z,102051.00
2018-09-28T17:07:51.956Z,102048.00
2018-09-28T17:10:20.795Z,102050.00
2018-09-28T17:12:49.893Z,102050.00
2018-09-28T17:15:18.870Z,102050.00
2018-09-28T17:17:47.680Z,102059.00
2018-09-28T17:20:16.539Z,102062.00
2018-09-28T17:22:45.502Z,102061.00
2018-09-28T17:25:14.351Z,102078.00
2018-09-28T17:27:43.201Z,102077.00
2018-09-28T17:30:12.078Z,102081.00
2018-09-28T17:32:40.893Z,102088.00
2018-09-28T17:35:10.261Z,102077.00
2018-09-28T17:37:39.113Z,102080.00
2018-09-28T17:40:09.014Z,102081.00
2018-09-28T17:42:37.822Z,102086.00
2018-09-28T17:45:08.500Z,102090.00
2018-09-28T17:48:03.143Z,102089.00
2018-09-28T17:50:32.070Z,102092.00
2018-09-28T17:53:00.879Z,102088.00
2018-09-28T17:55:29.743Z,102093.00
2018-09-28T17:57:58.694Z,102096.00
2018-09-28T18:00:27.548Z,102093.00
2018-09-28T18:02:56.364Z,102107.00
2018-09-28T18:05:25.670Z,102119.00
2018-09-28T18:07:54.469Z,102114.00
2018-09-28T18:10:23.277Z,102112.00
2018-09-28T18:12:52.163Z,102104.00
2018-09-28T18:15:21.016Z,102116.00
2018-09-28T18:17:49.811Z,102110.00
2018-09-28T18:20:18.662Z,102116.00
2018-09-28T18:22:47.467Z,102115.00
2018-09-28T18:25:16.307Z,102120.00
2018-09-28T18:27:45.405Z,102119.00
2018-09-28T18:30:14.261Z,102113.00
2018-09-28T18:32:43.175Z,102114.00
2018-09-28T18:35:12.410Z,102113.00
2018-09-28T18:37:41.237Z,102114.00
2018-09-28T18:40:10.070Z,102121.00
2018-09-28T18:42:38.938Z,102126.00
2018-09-28T18:45:08.830Z,102127.00
2018-09-28T18:47:37.629Z,102142.00
2018-09-28T18:50:06.960Z,102141.00
2018-09-28T18:52:35.858Z,102133.00
2018-09-28T18:55:04.811Z,102136.00
2018-09-28T18:57:33.694Z,102134.00
2018-09-28T19:00:02.661Z,102141.00
2018-09-28T19:02:31.497Z,102144.00
2018-09-28T19:05:00.355Z,102142.00
2018-09-28T19:07:29.212Z,102147.00
2018-09-28T19:09:58.022Z,102155.00
2018-09-28T19:12:27.276Z,102149.00
2018-09-28T19:14:56.078Z,102158.00
2018-09-28T19:17:24.950Z,102151.00
2018-09-28T19:19:53.791Z,102159.00
2018-09-28T19:22:22.931Z,102161.00
2018-09-28T19:24:51.753Z,102172.00
2018-09-28T19:27:20.572Z,102164.00
2018-09-28T19:29:49.458Z,102169.00
2018-09-28T19:32:18.326Z,102163.00
2018-09-28T19:34:47.363Z,102173.00
2018-09-28T19:37:16.840Z,102178.00
2018-09-28T19:39:45.659Z,102177.00
2018-09-28T19:42:14.468Z,102182.00
2018-09-28T19:44:43.241Z,102179.00
2018-09-28T19:47:12.068Z,102190.00
2018-09-28T19:49:40.917Z,102183.00
2018-09-28T19:52:09.752Z,102188.00
2018-09-28T19:54:38.622Z,102191.00
2018-09-28T19:57:07.737Z,102184.00
2018-09-28T19:59:36.606Z,102191.00
2018-09-28T20:02:05.459Z,102191.00
2018-09-28T20:04:34.298Z,102198.00
2018-09-28T20:07:03.153Z,102206.00
2018-09-28T20:09:32.534Z,102210.00
2018-09-28T20:12:05.660Z,102203.00
2018-09-28T20:14:35.352Z,102195.00
2018-09-28T20:17:04.252Z,102207.00
2018-09-28T20:19:33.663Z,102204.00
2018-09-28T20:22:02.471Z,102194.00
2018-09-28T20:24:31.289Z,102205.00
2018-09-28T20:27:00.120Z,102212.00
2018-09-28T20:29:28.939Z,102208.00
2018-09-28T20:31:57.783Z,102210.00
2018-09-28T20:34:26.642Z,102217.00
2018-09-28T20:36:55.469Z,102215.00
2018-09-28T20:39:24.578Z,102229.00
2018-09-28T20:41:53.898Z,102216.00
2018-09-28T20:44:22.714Z,102234.00
2018-09-28T20:46:51.552Z,102238.00
2018-09-28T20:49:20.375Z,102232.00
2018-09-28T20:51:49.189Z,102246.00
2018-09-28T20:54:17.997Z,102250.00
2018-09-28T20:56:46.814Z,102245.00
2018-09-28T20:59:15.629Z,102254.00
2018-09-28T21:01:44.440Z,102253.00
2018-09-28T21:04:13.434Z,102252.00
2018-09-28T21:06:42.276Z,102264.00
2018-09-28T21:09:11.704Z,102266.00
2018-09-28T21:11:40.562Z,102263.00
2018-09-28T21:14:09.407Z,102271.00
2018-09-28T21:16:38.216Z,102271.00
2018-09-28T21:19:07.083Z,102263.00
2018-09-28T21:21:35.906Z,102272.00
2018-09-28T21:24:04.778Z,102280.00
2018-09-28T21:26:33.832Z,102278.00
2018-09-28T21:29:02.689Z,102286.00
2018-09-28T21:31:31.486Z,102280.00
2018-09-28T21:34:00.430Z,102280.00
2018-09-28T21:36:29.263Z,102290.00
2018-09-28T21:38:58.079Z,102291.00
2018-09-28T21:41:26.948Z,102294.00
2018-09-28T21:43:55.873Z,102290.00
2018-09-28T21:46:24.695Z,102294.00
2018-09-28T21:48:53.854Z,102297.00
2018-09-28T21:51:22.711Z,102288.00
2018-09-28T21:53:51.517Z,102302.00
2018-09-28T21:56:20.594Z,102300.00
2018-09-28T21:58:49.479Z,102305.00
2018-09-28T22:01:19.335Z,102310.00
2018-09-28T22:03:49.897Z,102306.00
2018-09-28T22:06:18.761Z,102296.00
2018-09-28T22:08:47.563Z,102290.00
2018-09-28T22:11:16.754Z,102303.00
2018-09-28T22:13:45.560Z,102294.00
2018-09-28T22:16:14.410Z,102308.00
2018-09-28T22:18:43.213Z,102294.00
2018-09-28T22:21:12.090Z,102296.00
2018-09-28T22:23:40.993Z,102288.00
2018-09-28T22:26:09.817Z,102299.00
2018-09-28T22:28:38.687Z,102309.00
2018-09-28T22:31:07.744Z,102303.00
2018-09-28T22:33:36.715Z,102296.00
2018-09-28T22:36:05.534Z,102307.00
2018-09-28T22:38:34.371Z,102304.00
2018-09-28T22:41:03.242Z,102310.00
2018-09-28T22:43:32.530Z,102302.00
2018-09-28T22:46:01.330Z,102299.00
2018-09-28T22:48:30.155Z,102310.00
2018-09-28T22:50:59.074Z,102296.00
2018-09-28T22:53:27.896Z,102303.00
2018-09-28T22:55:56.990Z,102309.00
2018-09-28T22:58:25.780Z,102301.00
2018-09-28T23:00:54.621Z,102314.00
2018-09-28T23:03:23.458Z,102307.00
2018-09-28T23:05:52.266Z,102300.00
2018-09-28T23:08:21.072Z,102308.00
2018-09-28T23:10:49.908Z,102305.00
2018-09-28T23:13:18.719Z,102305.00
2018-09-28T23:15:47.593Z,102302.00
2018-09-28T23:18:16.554Z,102314.00
2018-09-28T23:20:45.414Z,102293.00
2018-09-28T23:23:14.234Z,102304.00
2018-09-28T23:25:43.070Z,102305.00
2018-09-28T23:28:11.901Z,102326.00
2018-09-28T23:30:40.759Z,102318.00
2018-09-28T23:33:09.606Z,102319.00
2018-09-28T23:35:38.431Z,102316.00
2018-09-28T23:38:07.235Z,102331.00
2018-09-28T23:40:36.303Z,102332.00
2018-09-28T23:43:05.169Z,102326.00
2018-09-28T23:45:34.487Z,102326.00
2018-09-28T23:48:03.287Z,102327.00
2018-09-28T23:50:32.094Z,102340.00
2018-09-28T23:53:00.899Z,102342.00
2018-09-28T23:55:29.714Z,102335.00
2018-09-28T23:57:58.519Z,102339.00
